Time;durP1;ratioP1;P1;durP2;ratioP2;P2;SDS_P1;SDS_P2;PMS_P1;PMS_P2;Temp;Humidity;BMP_temperature;BMP_pressure;BME280_temperature;BME280_humidity;BME280_pressure;Samples;Min_cycle;Max_cycle;Signal;HPM_P1;HPM_P2
2023/07/05 00:01:36;;;;;;;5.13;3.67;;;25.60;47.30;;;;;;5011070;28;87648;-91
2023/07/05 00:04:01;;;;;;;4.45;3.50;;;25.60;47.20;;;;;;5012173;28;88699;-92
2023/07/05 00:06:27;;;;;;;4.53;3.60;;;25.60;47.30;;;;;;5009313;28;91095;-92
2023/07/05 00:08:53;;;;;;;5.45;3.70;;;25.60;47.10;;;;;;5012203;28;88860;-92
2023/07/05 00:11:19;;;;;;;4.47;3.65;;;25.50;47.40;;;;;;5011282;28;87983;-93
2023/07/05 00:13:45;;;;;;;4.78;3.92;;;25.50;47.30;;;;;;5009582;28;89618;-91
2023/07/05 00:16:11;;;;;;;4.15;3.38;;;25.50;47.30;;;;;;5011749;28;90301;-92
2023/07/05 00:18:38;;;;;;;4.20;3.45;;;25.50;47.40;;;;;;5009049;28;90234;-91
2023/07/05 00:21:06;;;;;;;4.25;3.42;;;25.50;47.40;;;;;;4994183;28;87588;-92
2023/07/05 00:23:33;;;;;;;5.10;3.43;;;25.50;47.50;;;;;;5010606;28;87140;-91
2023/07/05 00:25:59;;;;;;;3.92;3.58;;;25.50;47.40;;;;;;5010011;28;89495;-91
2023/07/05 00:28:25;;;;;;;4.10;3.70;;;25.50;47.30;;;;;;5008799;28;87902;-91
2023/07/05 00:30:51;;;;;;;4.28;3.70;;;25.50;47.30;;;;;;5010615;27;88144;-92
2023/07/05 00:33:16;;;;;;;5.20;4.15;;;25.50;47.30;;;;;;5008317;28;89408;-90
2023/07/05 00:35:50;;;;;;;4.45;3.63;;;25.50;47.40;;;;;;5009202;28;89315;-92
2023/07/05 00:38:16;;;;;;;4.93;3.67;;;25.50;47.60;;;;;;5008020;28;92235;-91
2023/07/05 00:40:42;;;;;;;3.95;3.28;;;25.40;47.40;;;;;;5005992;28;87059;-91
2023/07/05 00:43:09;;;;;;;4.50;3.80;;;25.50;47.40;;;;;;5008958;28;86984;-91
2023/07/05 00:45:56;;;;;;;4.18;3.20;;;25.40;47.30;;;;;;5007449;28;88882;-92
2023/07/05 00:48:44;;;;;;;4.35;3.28;;;25.50;47.50;;;;;;5009381;28;90613;-92
2023/07/05 00:51:18;;;;;;;4.63;3.30;;;25.40;47.40;;;;;;5008660;28;88038;-92
2023/07/05 00:53:44;;;;;;;5.05;3.47;;;25.50;47.50;;;;;;5011910;28;88103;-90
2023/07/05 00:56:17;;;;;;;3.75;3.22;;;25.50;47.50;;;;;;5008136;28;92045;-92
2023/07/05 00:58:43;;;;;;;3.40;3.10;;;25.40;47.40;;;;;;5008893;28;88418;-92
2023/07/05 01:01:10;;;;;;;3.65;3.35;;;25.40;47.50;;;;;;5006604;28;87728;-91
2023/07/05 01:03:37;;;;;;;3.90;3.25;;;25.50;47.50;;;;;;5010109;28;88340;-92
2023/07/05 01:06:06;;;;;;;3.88;2.90;;;25.50;47.50;;;;;;5011907;28;89388;-92
2023/07/05 01:08:31;;;;;;;3.33;3.03;;;25.40;47.30;;;;;;5012240;28;89785;-90
2023/07/05 01:11:05;;;;;;;3.85;3.35;;;25.40;47.30;;;;;;5029201;27;87051;-91
2023/07/05 01:13:40;;;;;;;4.38;3.03;;;25.40;47.40;;;;;;5030212;27;89075;-91
2023/07/05 01:16:21;;;;;;;4.82;3.58;;;25.40;47.40;;;;;;5029914;27;90476;-91
2023/07/05 01:18:55;;;;;;;3.72;3.03;;;25.40;47.50;;;;;;5012621;28;87458;-91
2023/07/05 01:21:43;;;;;;;3.13;2.80;;;25.40;47.40;;;;;;5012708;28;88211;-91
2023/07/05 01:24:39;;;;;;;4.32;3.13;;;25.40;47.50;;;;;;5015429;28;89713;-91
2023/07/05 01:27:31;;;;;;;3.92;3.38;;;25.40;47.60;;;;;;5030049;27;93281;-92
2023/07/05 01:30:18;;;;;;;4.63;2.90;;;25.40;47.60;;;;;;5007352;28;88812;-90
2023/07/05 01:33:05;;;;;;;3.72;3.15;;;25.40;47.60;;;;;;5014464;28;88361;-91
2023/07/05 01:35:36;;;;;;;3.63;2.70;;;25.40;47.70;;;;;;5012974;28;89283;-92
2023/07/05 01:38:05;;;;;;;3.17;2.88;;;25.30;47.60;;;;;;5013988;28;90566;-91
2023/07/05 01:40:30;;;;;;;4.85;3.42;;;25.40;47.60;;;;;;5013283;28;89977;-89
2023/07/05 01:43:00;;;;;;;4.07;3.47;;;25.30;47.70;;;;;;5014868;28;87269;-92
2023/07/05 01:45:59;;;;;;;3.50;3.20;;;25.30;47.60;;;;;;5011113;28;89390;-92
2023/07/05 01:48:27;;;;;;;4.22;3.03;;;25.30;47.60;;;;;;5009260;28;94258;-92
2023/07/05 01:51:03;;;;;;;3.70;3.28;;;25.30;47.70;;;;;;5012000;28;89590;-91
2023/07/05 01:53:48;;;;;;;3.58;3.22;;;25.30;47.50;;;;;;5009146;28;87697;-91
2023/07/05 01:56:24;;;;;;;3.47;2.67;;;25.40;47.60;;;;;;5026608;27;89159;-91
2023/07/05 01:58:54;;;;;;;3.55;2.72;;;25.30;47.60;;;;;;5012791;28;87440;-91
2023/07/05 02:01:22;;;;;;;3.42;2.92;;;25.30;47.70;;;;;;5012037;28;87376;-92
2023/07/05 02:03:49;;;;;;;;;;;25.20;47.60;;;;;;5010831;28;87121;-92
2023/07/05 02:06:20;;;;;;;3.05;2.75;;;25.30;47.90;;;;;;4968909;28;87511;-90
2023/07/05 02:08:49;;;;;;;3.30;2.63;;;25.30;47.70;;;;;;5007350;28;89104;-91
2023/07/05 02:11:15;;;;;;;2.85;2.58;;;25.30;47.60;;;;;;5008779;28;88078;-91
2023/07/05 02:13:41;;;;;;;2.95;2.65;;;25.30;47.60;;;;;;5006872;28;88466;-91
2023/07/05 02:16:07;;;;;;;3.63;2.80;;;25.30;47.70;;;;;;5009971;28;87713;-91
2023/07/05 02:18:33;;;;;;;2.92;2.63;;;25.40;47.70;;;;;;5011029;28;89941;-90
2023/07/05 02:20:58;;;;;;;3.15;2.85;;;25.40;47.50;;;;;;5011105;28;87541;-91
2023/07/05 02:23:24;;;;;;;3.47;2.70;;;25.40;47.50;;;;;;4993253;28;87235;-91
2023/07/05 02:25:51;;;;;;;4.00;2.75;;;25.40;47.30;;;;;;5010302;28;86908;-91
2023/07/05 02:28:17;;;;;;;3.47;2.55;;;25.50;47.40;;;;;;5010878;28;90733;-92
2023/07/05 02:30:43;;;;;;;2.80;2.60;;;25.50;47.50;;;;;;5012379;28;87844;-91
2023/07/05 02:33:09;;;;;;;2.90;2.55;;;25.60;47.30;;;;;;5010260;28;87826;-91
2023/07/05 02:35:39;;;;;;;2.90;2.33;;;25.50;47.20;;;;;;5008622;28;87420;-91
2023/07/05 02:38:06;;;;;;;2.70;2.50;;;25.70;47.00;;;;;;5009684;28;91341;-90
2023/07/05 02:40:32;;;;;;;2.88;2.65;;;25.70;46.90;;;;;;5012659;28;88523;-91
2023/07/05 02:42:59;;;;;;;3.55;2.90;;;25.70;46.80;;;;;;5009074;28;87506;-90
2023/07/05 02:45:26;;;;;;;3.53;2.67;;;25.70;47.00;;;;;;5014747;28;88057;-91
2023/07/05 02:47:52;;;;;;;3.15;2.55;;;25.70;46.70;;;;;;5011618;28;89160;-90
2023/07/05 02:50:19;;;;;;;3.10;2.78;;;25.60;46.70;;;;;;5013055;28;89706;-89
2023/07/05 02:52:45;;;;;;;2.97;2.58;;;25.70;46.60;;;;;;5015601;28;87823;-90
2023/07/05 02:55:10;;;;;;;2.70;2.38;;;25.70;46.80;;;;;;5013031;28;88025;-89
2023/07/05 02:57:36;;;;;;;3.15;2.78;;;25.60;46.80;;;;;;5013289;28;87728;-91
2023/07/05 03:00:06;;;;;;;3.83;2.70;;;25.60;46.80;;;;;;5013890;28;90129;-90
2023/07/05 03:02:32;;;;;;;3.65;3.05;;;25.60;46.90;;;;;;5013419;28;88372;-90
2023/07/05 03:04:58;;;;;;;2.78;2.50;;;25.60;47.00;;;;;;5012466;28;90015;-90
2023/07/05 03:07:23;;;;;;;2.67;2.47;;;25.60;46.90;;;;;;5011223;28;90643;-91
2023/07/05 03:09:49;;;;;;;2.97;2.45;;;25.70;46.70;;;;;;5014121;28;86897;-92
2023/07/05 03:12:16;;;;;;;2.92;2.63;;;25.70;46.70;;;;;;5012757;28;87852;-91
2023/07/05 03:14:41;;;;;;;3.28;2.67;;;25.80;46.40;;;;;;5010921;28;87642;-91
2023/07/05 03:17:09;;;;;;;2.53;2.33;;;25.70;46.30;;;;;;5009075;28;89527;-91
2023/07/05 03:19:35;;;;;;;2.50;2.17;;;25.70;46.70;;;;;;5007049;28;91785;-91
2023/07/05 03:22:01;;;;;;;2.90;2.58;;;25.60;46.70;;;;;;5010635;28;87732;-91
2023/07/05 03:24:26;;;;;;;3.60;2.63;;;25.60;46.50;;;;;;5010050;28;89026;-90
2023/07/05 03:26:52;;;;;;;2.70;2.30;;;25.70;46.40;;;;;;5009155;28;88766;-90
2023/07/05 03:29:18;;;;;;;3.25;2.35;;;25.70;46.50;;;;;;5010262;28;89936;-90
2023/07/05 03:31:43;;;;;;;2.88;2.60;;;25.70;46.50;;;;;;5013910;28;87095;-90
2023/07/05 03:34:09;;;;;;;2.50;2.25;;;25.60;46.70;;;;;;5011484;28;87474;-90
2023/07/05 03:36:35;;;;;;;3.92;3.03;;;25.60;46.80;;;;;;5008371;28;87475;-91
2023/07/05 03:39:01;;;;;;;1.95;1.83;;;25.60;47.10;;;;;;5008012;28;87154;-90
2023/07/05 03:41:27;;;;;;;2.50;2.30;;;25.60;46.90;;;;;;5006415;28;87862;-91
2023/07/05 03:43:56;;;;;;;2.55;2.35;;;25.60;46.90;;;;;;5005208;28;88096;-92
2023/07/05 03:46:22;;;;;;;3.63;2.55;;;25.70;47.00;;;;;;5020897;27;90307;-91
2023/07/05 03:48:48;;;;;;;3.53;2.90;;;25.80;46.70;;;;;;5006730;28;90070;-90
2023/07/05 03:51:17;;;;;;;2.53;2.28;;;25.70;46.80;;;;;;5009814;28;88878;-91
2023/07/05 03:53:43;;;;;;;2.53;2.20;;;25.70;46.40;;;;;;5007590;28;88144;-91
2023/07/05 03:56:10;;;;;;;2.50;2.30;;;25.50;46.60;;;;;;5006449;28;88941;-90
2023/07/05 03:58:36;;;;;;;2.67;2.25;;;25.50;46.70;;;;;;5008704;28;89030;-90
2023/07/05 04:01:06;;;;;;;2.58;2.38;;;25.50;46.70;;;;;;5007878;28;87661;-91
2023/07/05 04:03:35;;;;;;;2.60;2.40;;;25.60;46.50;;;;;;5012721;28;87850;-91
2023/07/05 04:06:04;;;;;;;2.40;2.20;;;25.50;46.50;;;;;;5008928;28;94931;-91
2023/07/05 04:08:30;;;;;;;3.30;2.20;;;25.60;46.50;;;;;;5012304;28;90501;-90
2023/07/05 04:10:55;;;;;;;3.53;2.70;;;25.70;46.40;;;;;;5013751;28;87123;-91
2023/07/05 04:13:21;;;;;;;3.08;2.42;;;25.60;46.50;;;;;;5013250;28;87530;-91
2023/07/05 04:15:56;;;;;;;2.55;2.15;;;25.60;46.40;;;;;;5011942;28;90356;-89
2023/07/05 04:18:21;;;;;;;3.10;2.17;;;25.60;46.40;;;;;;5012493;28;90986;-91
2023/07/05 04:20:47;;;;;;;2.50;2.30;;;25.60;46.40;;;;;;5013100;28;87503;-90
2023/07/05 04:23:13;;;;;;;2.65;2.20;;;25.60;46.50;;;;;;5008013;28;87405;-90
2023/07/05 04:25:38;;;;;;;2.90;2.60;;;25.50;46.50;;;;;;5010958;28;88025;-90
2023/07/05 04:28:05;;;;;;;2.60;2.40;;;25.50;46.60;;;;;;5001104;28;90323;-90
2023/07/05 04:30:30;;;;;;;2.65;2.20;;;25.50;46.70;;;;;;5012830;28;87530;-90
2023/07/05 04:32:56;;;;;;;2.92;2.30;;;25.50;46.50;;;;;;5013244;28;87053;-89
2023/07/05 04:35:21;;;;;;;2.45;2.22;;;25.50;46.40;;;;;;5012671;28;88579;-91
2023/07/05 04:37:47;;;;;;;2.35;2.15;;;25.60;46.40;;;;;;5010779;28;90182;-90
2023/07/05 04:40:13;;;;;;;2.45;2.22;;;25.50;46.50;;;;;;5016154;28;89007;-90
2023/07/05 04:42:38;;;;;;;2.38;2.10;;;25.50;46.40;;;;;;5013133;28;87917;-90
2023/07/05 04:45:04;;;;;;;2.63;2.40;;;25.60;46.20;;;;;;5015713;28;90355;-91
2023/07/05 04:47:30;;;;;;;2.97;2.22;;;25.50;46.20;;;;;;5016669;28;89801;-90
2023/07/05 04:49:56;;;;;;;2.50;2.30;;;25.50;46.30;;;;;;5014271;28;86991;-90
2023/07/05 04:52:21;;;;;;;2.72;2.00;;;25.40;46.40;;;;;;5015072;28;87857;-91
2023/07/05 04:54:47;;;;;;;2.20;2.00;;;25.40;46.50;;;;;;5013163;28;89305;-91
2023/07/05 04:57:13;;;;;;;2.63;2.00;;;25.40;46.50;;;;;;4996980;28;90458;-90
2023/07/05 04:59:43;;;;;;;2.65;2.20;;;25.50;46.20;;;;;;5016117;28;87088;-91
2023/07/05 05:02:10;;;;;;;2.17;1.98;;;25.50;46.10;;;;;;5015708;28;87905;-90
2023/07/05 05:04:36;;;;;;;2.97;2.30;;;25.50;46.10;;;;;;5012891;28;91606;-91
2023/07/05 05:07:01;;;;;;;2.65;2.45;;;25.40;46.20;;;;;;5010286;28;91953;-91
2023/07/05 05:09:27;;;;;;;2.45;2.05;;;25.50;46.20;;;;;;5012831;28;87869;-90
2023/07/05 05:11:52;;;;;;;3.22;2.15;;;25.40;46.20;;;;;;5010398;28;88775;-91
2023/07/05 05:14:18;;;;;;;2.60;2.40;;;25.40;46.50;;;;;;5010056;28;90091;-90
2023/07/05 05:16:44;;;;;;;2.55;2.08;;;25.40;45.90;;;;;;5011360;28;95025;-91
2023/07/05 05:19:09;;;;;;;2.45;2.25;;;25.50;46.20;;;;;;5011651;28;87751;-90
2023/07/05 05:21:35;;;;;;;2.92;2.25;;;25.40;46.10;;;;;;5012719;28;89365;-91
2023/07/05 05:24:01;;;;;;;2.88;2.30;;;25.40;46.10;;;;;;5008890;28;90483;-91
2023/07/05 05:26:26;;;;;;;2.88;2.45;;;25.40;46.20;;;;;;5005243;28;89590;-91
2023/07/05 05:28:52;;;;;;;2.88;2.25;;;25.40;46.10;;;;;;5010171;28;88696;-91
2023/07/05 05:31:17;;;;;;;2.22;2.03;;;25.50;46.00;;;;;;5011806;28;89845;-91
2023/07/05 05:33:43;;;;;;;2.45;2.22;;;25.60;45.80;;;;;;5013550;28;87571;-91
2023/07/05 05:36:09;;;;;;;4.13;2.05;;;25.50;45.90;;;;;;5011457;28;89893;-91
2023/07/05 05:38:35;;;;;;;2.70;2.28;;;25.60;45.60;;;;;;5012725;28;87240;-92
2023/07/05 05:41:03;;;;;;;2.58;2.22;;;25.50;45.80;;;;;;5011660;28;88193;-92
2023/07/05 05:43:29;;;;;;;2.57;2.00;;;25.40;46.00;;;;;;5012136;28;89318;-91
2023/07/05 05:45:55;;;;;;;2.33;1.98;;;25.40;46.00;;;;;;5013953;28;90370;-91
2023/07/05 05:48:21;;;;;;;2.35;2.15;;;25.30;46.10;;;;;;5011931;28;87322;-90
2023/07/05 05:50:47;;;;;;;2.45;2.10;;;25.40;46.20;;;;;;5009132;28;89754;-91
2023/07/05 05:53:13;;;;;;;2.60;2.08;;;25.40;46.00;;;;;;5010118;28;88834;-90
2023/07/05 05:55:39;;;;;;;2.55;2.35;;;25.40;46.10;;;;;;5009242;28;90094;-90
2023/07/05 05:58:06;;;;;;;14.63;5.28;;;25.40;45.70;;;;;;5007873;28;87515;-89
2023/07/05 06:00:32;;;;;;;16.58;5.63;;;25.30;44.20;;;;;;5012350;28;88541;-91
2023/07/05 06:02:58;;;;;;;23.25;7.88;;;25.30;44.40;;;;;;5013147;28;87167;-92
2023/07/05 06:05:24;;;;;;;8.00;4.18;;;25.50;44.30;;;;;;5012012;28;89536;-95
2023/07/05 06:07:50;;;;;;;8.82;3.85;;;25.50;44.40;;;;;;5016734;28;87583;-89
2023/07/05 06:10:16;;;;;;;10.13;4.95;;;25.60;44.10;;;;;;5012266;28;89537;-89
2023/07/05 06:12:41;;;;;;;13.73;5.50;;;25.50;43.70;;;;;;5013934;28;90111;-94
2023/07/05 06:15:12;;;;;;;14.57;5.85;;;25.40;43.60;;;;;;5015168;28;87666;-94
2023/07/05 06:17:38;;;;;;;15.25;5.00;;;25.40;43.20;;;;;;5031361;27;88680;-93
2023/07/05 06:20:06;;;;;;;12.80;4.97;;;25.40;43.40;;;;;;5016684;28;87547;-94
2023/07/05 06:22:32;;;;;;;17.60;5.30;;;25.50;42.90;;;;;;5017194;28;88057;-94
2023/07/05 06:24:58;;;;;;;12.07;4.45;;;25.50;41.80;;;;;;5016560;28;87798;-95
2023/07/05 06:27:23;;;;;;;17.80;5.00;;;25.60;41.70;;;;;;5016804;28;87146;-94
2023/07/05 06:29:49;;;;;;;10.70;4.13;;;25.60;41.20;;;;;;5015501;28;89787;-92
2023/07/05 06:32:14;;;;;;;13.02;3.58;;;25.60;41.10;;;;;;5013523;28;88811;-90
2023/07/05 06:34:40;;;;;;;10.07;3.70;;;25.40;41.10;;;;;;5018326;28;87140;-94
2023/07/05 06:37:06;;;;;;;11.60;3.13;;;25.40;41.00;;;;;;5017840;28;87985;-94
2023/07/05 06:39:31;;;;;;;6.80;2.63;;;25.50;40.90;;;;;;5016899;28;88881;-93
2023/07/05 06:41:57;;;;;;;11.95;3.08;;;25.50;40.50;;;;;;5014956;28;88708;-89
2023/07/05 06:44:22;;;;;;;5.88;2.78;;;25.60;41.00;;;;;;5011070;28;88451;-92
2023/07/05 06:46:48;;;;;;;7.30;2.83;;;25.60;40.50;;;;;;5015808;28;87522;-89
2023/07/05 06:49:13;;;;;;;6.88;2.35;;;25.60;40.60;;;;;;5010703;27;87760;-91
2023/07/05 06:51:39;;;;;;;8.02;2.20;;;25.50;40.20;;;;;;5008714;28;90236;-90
2023/07/05 06:54:05;;;;;;;7.18;2.10;;;25.60;40.90;;;;;;5011096;28;90705;-90
2023/07/05 06:56:30;;;;;;;5.32;2.10;;;25.60;40.30;;;;;;5011692;28;87689;-90
2023/07/05 06:58:56;;;;;;;3.17;1.80;;;25.60;40.10;;;;;;5012495;28;89744;-89
2023/07/05 07:01:21;;;;;;;6.53;1.75;;;25.50;40.30;;;;;;5007783;28;90777;-90
2023/07/05 07:03:47;;;;;;;3.53;2.10;;;25.50;40.60;;;;;;5008922;28;90617;-90
2023/07/05 07:06:13;;;;;;;4.70;1.83;;;25.40;40.80;;;;;;5012965;28;89131;-89
2023/07/05 07:08:38;;;;;;;4.45;1.90;;;25.30;40.90;;;;;;5013377;28;87749;-90
2023/07/05 07:11:06;;;;;;;3.13;1.50;;;25.30;40.80;;;;;;5011761;28;90298;-90
2023/07/05 07:13:32;;;;;;;4.60;1.40;;;25.30;40.90;;;;;;5007403;28;87837;-89
2023/07/05 07:16:06;;;;;;;3.38;1.70;;;25.30;41.00;;;;;;5011563;28;87876;-90
2023/07/05 07:18:35;;;;;;;4.32;1.80;;;25.50;40.40;;;;;;5009169;28;89745;-90
2023/07/05 07:21:02;;;;;;;4.45;1.67;;;25.50;40.50;;;;;;5011662;28;95992;-89
2023/07/05 07:23:29;;;;;;;515.25;109.63;;;25.40;40.80;;;;;;5009644;28;89965;-88
2023/07/05 07:26:04;;;;;;;266.15;54.83;;;25.60;40.70;;;;;;5011625;28;87025;-88
2023/07/05 07:28:30;;;;;;;134.73;28.40;;;25.60;40.20;;;;;;5011553;28;87604;-90
2023/07/05 07:30:56;;;;;;;146.27;31.20;;;25.70;40.20;;;;;;5009215;28;88622;-88
2023/07/05 07:33:21;;;;;;;136.00;30.02;;;25.70;40.40;;;;;;5008543;28;89388;-86
2023/07/05 07:35:48;;;;;;;137.15;28.15;;;25.60;40.00;;;;;;5004369;28;88408;-85
2023/07/05 07:38:14;;;;;;;127.85;31.08;;;25.50;40.20;;;;;;5005805;28;88062;-85
2023/07/05 07:40:40;;;;;;;111.25;27.23;;;25.60;40.40;;;;;;5020828;27;91018;-85
2023/07/05 07:43:06;;;;;;;112.25;24.27;;;25.40;40.40;;;;;;5005659;28;88395;-87
2023/07/05 07:45:33;;;;;;;80.80;19.65;;;25.30;40.60;;;;;;5010633;28;87502;-86
2023/07/05 07:47:58;;;;;;;68.25;18.00;;;25.30;40.70;;;;;;5024674;28;89465;-88
2023/07/05 07:50:25;;;;;;;67.25;15.82;;;25.30;40.50;;;;;;5008415;28;87692;-89
2023/07/05 07:52:51;;;;;;;55.97;14.57;;;25.50;40.50;;;;;;5006325;28;87498;-85
2023/07/05 07:55:16;;;;;;;55.10;13.93;;;25.50;40.20;;;;;;5008392;28;88408;-86
2023/07/05 07:57:42;;;;;;;42.60;11.13;;;25.50;40.50;;;;;;5012303;28;87462;-86
2023/07/05 08:00:10;;;;;;;37.42;9.48;;;25.40;40.20;;;;;;5006836;28;87240;-85
2023/07/05 08:02:36;;;;;;;32.83;8.07;;;25.50;40.50;;;;;;5008047;28;88482;-90
2023/07/05 08:05:03;;;;;;;28.02;7.07;;;25.50;40.50;;;;;;5010695;28;87457;-85
2023/07/05 08:07:30;;;;;;;25.58;6.85;;;25.40;40.30;;;;;;5010632;28;86905;-86
2023/07/05 08:09:56;;;;;;;23.88;6.90;;;25.50;40.30;;;;;;5007676;28;88253;-85
2023/07/05 08:12:21;;;;;;;17.40;5.20;;;25.50;40.20;;;;;;5010487;28;86714;-88
2023/07/05 08:14:47;;;;;;;17.80;4.85;;;25.50;40.20;;;;;;5011931;28;87522;-85
2023/07/05 08:17:13;;;;;;;15.70;4.38;;;25.50;40.00;;;;;;5009224;28;87359;-85
2023/07/05 08:19:39;;;;;;;14.00;3.85;;;25.50;40.20;;;;;;5010588;28;88894;-85
2023/07/05 08:22:06;;;;;;;11.48;4.18;;;25.50;40.20;;;;;;5008195;28;88920;-85
2023/07/05 08:24:32;;;;;;;9.43;3.30;;;25.50;40.00;;;;;;5007062;28;87599;-86
2023/07/05 08:26:59;;;;;;;11.82;3.00;;;25.50;40.10;;;;;;5007616;28;87479;-89
2023/07/05 08:29:25;;;;;;;11.75;3.45;;;25.50;40.10;;;;;;5009488;28;87121;-87
2023/07/05 08:31:51;;;;;;;8.50;2.80;;;25.50;40.00;;;;;;5009221;28;88079;-85
2023/07/05 08:34:17;;;;;;;7.88;2.67;;;25.50;39.90;;;;;;5006984;28;87886;-86
2023/07/05 08:36:43;;;;;;;11.15;3.08;;;25.50;40.00;;;;;;5005451;28;87408;-86
2023/07/05 08:39:11;;;;;;;4.72;2.35;;;25.50;39.90;;;;;;5007180;28;87983;-85
2023/07/05 08:41:43;;;;;;;8.32;2.17;;;25.40;40.10;;;;;;5004723;28;87607;-86
2023/07/05 08:44:30;;;;;;;5.35;2.00;;;25.40;39.50;;;;;;5005145;28;88300;-85
2023/07/05 08:47:08;;;;;;;5.10;1.83;;;25.40;39.50;;;;;;5006279;28;89656;-87
2023/07/05 08:49:44;;;;;;;5.80;1.70;;;25.40;39.50;;;;;;5008076;28;91396;-86
2023/07/05 08:52:25;;;;;;;6.53;1.85;;;25.40;39.40;;;;;;5010057;28;87710;-87
2023/07/05 08:54:54;;;;;;;7.60;2.65;;;25.40;39.50;;;;;;5008656;28;87283;-87
2023/07/05 08:57:27;;;;;;;6.18;1.98;;;25.40;39.30;;;;;;5009706;28;87534;-85
2023/07/05 08:59:59;;;;;;;5.57;1.40;;;25.50;39.40;;;;;;5004592;28;88000;-88
2023/07/05 09:02:27;;;;;;;6.90;1.85;;;25.60;39.10;;;;;;5006592;28;88348;-87
2023/07/05 09:04:55;;;;;;;7.75;2.10;;;25.50;39.00;;;;;;5008959;28;87854;-87
2023/07/05 09:07:48;;;;;;;4.70;1.73;;;25.50;38.80;;;;;;5008343;28;89269;-85
2023/07/05 09:10:28;;;;;;;5.70;1.73;;;25.40;38.80;;;;;;5005555;28;92049;-86
2023/07/05 09:13:04;;;;;;;5.75;2.08;;;25.40;38.50;;;;;;5009256;28;87555;-85
2023/07/05 09:16:01;;;;;;;4.47;1.17;;;25.40;38.90;;;;;;5007935;28;87347;-85
2023/07/05 09:18:37;;;;;;;2.45;1.55;;;25.50;38.60;;;;;;5005901;28;92333;-86
2023/07/05 09:21:47;;;;;;;3.40;1.20;;;25.50;38.30;;;;;;5006470;28;92150;-86
2023/07/05 09:24:21;;;;;;;4.65;1.00;;;25.50;38.20;;;;;;5005484;28;90466;-86
2023/07/05 09:26:55;;;;;;;7.45;1.50;;;25.50;38.10;;;;;;5009849;28;87875;-86
2023/07/05 09:29:40;;;;;;;2.67;1.33;;;25.50;38.10;;;;;;5013226;28;86749;-87
2023/07/05 09:32:19;;;;;;;5.00;1.45;;;25.50;38.40;;;;;;5013208;28;88132;-87
2023/07/05 09:34:59;;;;;;;4.05;1.20;;;25.50;38.00;;;;;;5009452;28;90775;-86
2023/07/05 09:37:35;;;;;;;4.78;1.75;;;25.50;37.80;;;;;;5005730;28;87917;-87
2023/07/05 09:40:18;;;;;;;5.72;1.30;;;25.50;38.00;;;;;;5013832;28;87990;-85
2023/07/05 09:43:02;;;;;;;3.97;1.70;;;25.50;37.90;;;;;;5009420;28;89877;-85
2023/07/05 09:45:28;;;;;;;5.05;1.83;;;25.40;37.80;;;;;;5009524;28;89332;-86
2023/07/05 09:48:00;;;;;;;4.07;1.50;;;25.50;37.90;;;;;;5008642;28;86985;-85
2023/07/05 09:50:26;;;;;;;4.68;1.42;;;25.40;38.00;;;;;;5009862;28;92913;-88
2023/07/05 09:53:08;;;;;;;2.90;1.30;;;25.40;38.00;;;;;;5011615;28;88033;-87
2023/07/05 09:55:34;;;;;;;4.65;1.70;;;25.40;37.90;;;;;;5007808;28;87914;-87
2023/07/05 09:58:00;;;;;;;5.28;1.60;;;25.40;38.10;;;;;;5003716;28;88013;-86
2023/07/05 10:00:33;;;;;;;4.55;1.52;;;25.40;38.00;;;;;;5007703;28;87895;-86
2023/07/05 10:03:11;;;;;;;6.57;1.60;;;25.40;37.90;;;;;;5005145;28;95771;-85
2023/07/05 10:05:38;;;;;;;2.78;1.45;;;25.40;37.80;;;;;;5009946;28;88706;-86
2023/07/05 10:08:15;;;;;;;3.53;1.35;;;25.40;37.90;;;;;;5007479;28;87518;-87
2023/07/05 10:10:40;;;;;;;6.03;1.40;;;25.50;37.60;;;;;;5007384;28;89506;-85
2023/07/05 10:13:15;;;;;;;4.40;1.50;;;25.60;38.10;;;;;;5008564;27;88706;-87
2023/07/05 10:15:47;;;;;;;3.45;1.27;;;25.70;37.20;;;;;;5009357;28;87565;-86
2023/07/05 10:18:27;;;;;;;5.85;1.50;;;25.70;37.20;;;;;;5009207;28;87571;-85
2023/07/05 10:20:55;;;;;;;5.97;1.77;;;25.70;37.40;;;;;;5009424;28;89640;-86
2023/07/05 10:23:22;;;;;;;6.65;1.30;;;25.60;37.40;;;;;;5009498;28;88016;-84
2023/07/05 10:25:51;;;;;;;4.53;1.40;;;25.60;37.70;;;;;;5005050;28;89134;-85
2023/07/05 10:28:22;;;;;;;4.95;1.48;;;25.70;37.80;;;;;;5010433;28;88904;-85
2023/07/05 10:31:03;;;;;;;4.38;1.50;;;25.80;37.80;;;;;;5009150;28;87442;-87
2023/07/05 10:33:31;;;;;;;6.95;1.30;;;25.80;37.60;;;;;;5008055;28;88207;-85
2023/07/05 10:36:12;;;;;;;6.65;2.03;;;25.70;37.80;;;;;;5011060;28;87434;-86
2023/07/05 10:38:49;;;;;;;6.88;2.00;;;25.70;38.00;;;;;;5009943;28;87348;-87
2023/07/05 10:41:25;;;;;;;6.70;1.77;;;25.90;37.80;;;;;;5008782;28;87986;-86
2023/07/05 10:43:59;;;;;;;7.43;1.58;;;26.10;37.40;;;;;;5004689;28;89916;-88
2023/07/05 10:46:26;;;;;;;2.45;1.20;;;26.00;37.50;;;;;;5012138;28;89142;-86
2023/07/05 10:48:53;;;;;;;3.55;1.50;;;25.90;37.80;;;;;;5011141;28;87317;-87
2023/07/05 10:51:23;;;;;;;8.82;2.30;;;25.80;38.30;;;;;;5010956;28;87579;-86
2023/07/05 10:54:24;;;;;;;6.78;1.58;;;25.80;38.50;;;;;;5006745;28;90947;-85
2023/07/05 10:56:49;;;;;;;7.50;2.05;;;25.90;38.60;;;;;;5007847;28;90264;-89
2023/07/05 11:00:11;;;;;;;4.93;1.65;;;26.10;38.50;;;;;;5009212;28;86963;-87
2023/07/05 11:02:49;;;;;;;4.85;1.75;;;26.20;38.40;;;;;;4968286;28;87989;-88
2023/07/05 11:05:41;;;;;;;5.40;1.80;;;26.20;38.20;;;;;;5009102;28;90268;-88
2023/07/05 11:08:24;;;;;;;7.53;1.65;;;26.20;38.40;;;;;;5009580;28;88580;-87
2023/07/05 11:10:52;;;;;;;6.05;1.67;;;26.40;38.20;;;;;;5027572;27;87166;-86
2023/07/05 11:13:18;;;;;;;4.05;1.77;;;26.30;38.20;;;;;;5010868;28;87398;-87
2023/07/05 11:15:45;;;;;;;6.13;1.98;;;26.20;38.50;;;;;;5008961;28;88093;-85
2023/07/05 11:18:19;;;;;;;4.35;1.60;;;26.10;39.00;;;;;;5008582;28;90686;-86
2023/07/05 11:20:51;;;;;;;4.28;1.45;;;26.10;39.20;;;;;;5008474;28;88158;-86
2023/07/05 11:23:42;;;;;;;5.60;1.52;;;26.00;39.50;;;;;;5001242;28;90294;-86
2023/07/05 11:26:08;;;;;;;4.47;1.17;;;26.00;39.60;;;;;;5008014;28;90158;-86
2023/07/05 11:28:35;;;;;;;5.93;1.60;;;25.90;39.70;;;;;;5006733;28;89222;-88
2023/07/05 11:31:02;;;;;;;5.93;1.52;;;25.90;39.90;;;;;;5009342;28;86859;-86
2023/07/05 11:33:27;;;;;;;5.85;1.70;;;25.80;40.30;;;;;;5008129;28;87363;-87
2023/07/05 11:35:55;;;;;;;4.70;1.70;;;25.70;40.40;;;;;;5005599;28;93731;-86
2023/07/05 11:38:40;;;;;;;3.10;1.35;;;25.70;40.80;;;;;;5001976;28;95641;-88
2023/07/05 11:41:24;;;;;;;4.32;1.30;;;25.80;40.70;;;;;;5006089;28;92567;-86
2023/07/05 11:44:00;;;;;;;3.63;1.67;;;25.70;40.80;;;;;;5004979;28;92456;-87
2023/07/05 11:46:45;;;;;;;5.75;1.70;;;25.70;41.10;;;;;;5002979;28;93865;-88
2023/07/05 11:49:20;;;;;;;6.55;2.05;;;25.80;40.90;;;;;;5005259;28;93764;-88
2023/07/05 11:51:49;;;;;;;8.90;2.03;;;25.90;41.10;;;;;;5006501;28;92756;-88
2023/07/05 11:54:17;;;;;;;5.32;2.15;;;25.80;41.30;;;;;;5004122;28;93098;-87
2023/07/05 11:56:45;;;;;;;7.13;2.63;;;25.80;41.30;;;;;;5003869;28;96106;-87
2023/07/05 11:59:15;;;;;;;5.85;1.98;;;25.80;41.50;;;;;;5003987;28;92603;-87
2023/07/05 12:01:42;;;;;;;7.20;2.15;;;25.90;41.40;;;;;;5005107;28;93276;-90
2023/07/05 12:04:13;;;;;;;10.23;2.45;;;25.90;41.30;;;;;;5003993;28;91774;-88
2023/07/05 12:06:43;;;;;;;6.70;2.10;;;26.00;41.10;;;;;;5003759;28;93783;-90
2023/07/05 12:09:35;;;;;;;9.23;2.25;;;25.90;41.20;;;;;;5002869;28;93088;-88
2023/07/05 12:12:03;;;;;;;5.60;1.85;;;25.90;40.90;;;;;;5002941;28;93665;-86
2023/07/05 12:14:29;;;;;;;7.28;2.33;;;25.90;41.20;;;;;;5000808;28;99152;-88
2023/07/05 12:16:55;;;;;;;5.75;1.80;;;26.00;41.20;;;;;;4998170;28;93331;-88
2023/07/05 12:19:27;;;;;;;4.70;1.85;;;26.10;41.10;;;;;;5000739;28;94431;-88
2023/07/05 12:21:57;;;;;;;5.60;1.50;;;26.10;41.30;;;;;;5003085;28;92299;-86
2023/07/05 12:24:23;;;;;;;7.63;1.98;;;26.20;41.30;;;;;;5004907;28;92054;-89
2023/07/05 12:26:50;;;;;;;7.68;1.90;;;26.40;41.20;;;;;;4999797;28;95523;-85
2023/07/05 12:29:24;;;;;;;6.90;2.13;;;26.30;41.10;;;;;;5004164;28;92601;-86
2023/07/05 12:32:07;;;;;;;4.45;2.05;;;26.20;41.30;;;;;;5004488;28;93161;-90
2023/07/05 12:34:33;;;;;;;5.32;2.08;;;26.00;41.40;;;;;;5002863;28;92972;-88
2023/07/05 12:36:59;;;;;;;5.93;1.88;;;26.00;41.70;;;;;;4999104;28;95047;-87
2023/07/05 12:39:25;;;;;;;8.35;1.95;;;26.00;41.80;;;;;;5001684;28;93341;-88
2023/07/05 12:41:58;;;;;;;4.18;1.50;;;25.90;41.70;;;;;;5003388;28;93040;-87
2023/07/05 12:44:24;;;;;;;5.03;1.75;;;25.90;42.00;;;;;;5000741;28;93142;-87
2023/07/05 12:46:50;;;;;;;9.75;1.65;;;25.90;41.90;;;;;;4997118;28;92963;-88
2023/07/05 12:49:21;;;;;;;6.22;1.30;;;25.90;42.10;;;;;;5002185;28;92815;-86
2023/07/05 12:51:53;;;;;;;3.58;1.63;;;25.90;42.10;;;;;;5007349;28;92586;-86
2023/07/05 12:54:19;;;;;;;5.82;1.88;;;25.90;42.30;;;;;;5007495;28;91747;-87
2023/07/05 12:56:46;;;;;;;5.28;1.80;;;26.00;42.10;;;;;;5005438;28;93262;-87
2023/07/05 12:59:32;;;;;;;3.88;1.50;;;25.90;42.20;;;;;;5009809;28;92845;-87